createdAt,value
2019-01-14T00:01:04.712Z,4.261169
2019-01-14T00:02:14.298Z,4.220886
2019-01-14T00:03:23.965Z,4.170532
2019-01-14T00:04:33.582Z,4.190674
2019-01-14T00:05:43.242Z,4.190674
2019-01-14T00:06:52.962Z,4.200745
2019-01-14T00:08:02.637Z,4.220886
2019-01-14T00:09:12.183Z,4.220886
2019-01-14T00:10:22.714Z,4.230957
2019-01-14T00:11:32.250Z,4.220886
2019-01-14T00:12:41.788Z,4.200745
2019-01-14T00:13:51.314Z,4.200745
2019-01-14T00:15:00.871Z,4.190674
2019-01-14T00:16:10.420Z,4.230957
2019-01-14T00:17:19.961Z,4.241028
2019-01-14T00:18:29.510Z,4.230957
2019-01-14T00:19:39.074Z,4.230957
2019-01-14T00:20:48.624Z,4.241028
2019-01-14T00:21:58.190Z,4.311523
2019-01-14T00:23:07.728Z,4.311523
2019-01-14T00:24:17.252Z,4.321594
2019-01-14T00:25:26.772Z,4.281311
2019-01-14T00:26:36.332Z,4.301453
2019-01-14T00:27:45.875Z,4.241028
2019-01-14T00:28:55.415Z,4.230957
2019-01-14T00:30:05.005Z,4.200745
2019-01-14T00:31:14.538Z,4.190674
2019-01-14T00:32:24.113Z,4.200745
2019-01-14T00:33:33.642Z,4.230957
2019-01-14T00:34:43.197Z,4.220886
2019-01-14T00:35:52.769Z,4.220886
2019-01-14T00:37:02.396Z,4.220886
2019-01-14T00:38:11.964Z,4.220886
2019-01-14T00:39:21.518Z,4.230957
2019-01-14T00:40:32.033Z,4.341736
2019-01-14T00:41:41.548Z,4.382019
2019-01-14T00:42:51.089Z,4.351807
2019-01-14T00:44:00.633Z,4.301453
2019-01-14T00:45:10.157Z,4.261169
2019-01-14T00:46:19.714Z,4.261169
2019-01-14T00:47:29.242Z,4.261169
2019-01-14T00:48:38.738Z,4.200745
2019-01-14T00:49:48.280Z,4.160461
2019-01-14T00:50:57.864Z,4.100037
2019-01-14T00:52:07.421Z,4.130249
2019-01-14T00:53:16.958Z,4.130249
2019-01-14T00:54:26.492Z,4.100037
2019-01-14T00:55:36.021Z,4.100037
2019-01-14T00:56:45.603Z,4.059753
2019-01-14T00:57:55.181Z,4.01947
2019-01-14T00:59:04.730Z,4.01947
2019-01-14T01:00:14.248Z,3.959045
2019-01-14T01:01:23.781Z,3.959045
2019-01-14T01:02:33.338Z,3.918762
2019-01-14T01:03:42.873Z,3.868408
2019-01-14T01:04:52.429Z,3.828125
2019-01-14T01:06:01.989Z,3.797913
2019-01-14T01:07:11.569Z,3.777771
2019-01-14T01:08:21.156Z,3.737488
2019-01-14T01:09:30.708Z,3.697205
2019-01-14T01:10:40.305Z,3.656921
2019-01-14T01:11:49.873Z,3.626709
2019-01-14T01:12:59.514Z,3.596497
2019-01-14T01:14:09.077Z,3.576355
2019-01-14T01:15:18.601Z,3.556213
2019-01-14T01:16:28.136Z,3.556213
2019-01-14T01:17:37.696Z,3.505859
2019-01-14T01:18:47.239Z,3.435364
2019-01-14T01:19:56.806Z,3.395081
2019-01-14T01:21:06.348Z,3.364868
2019-01-14T01:22:15.943Z,3.324585
2019-01-14T01:23:25.503Z,3.294373
2019-01-14T01:24:35.070Z,3.254089
2019-01-14T01:25:44.651Z,3.233948
2019-01-14T01:26:54.234Z,3.233948
2019-01-14T01:28:03.809Z,3.213806
2019-01-14T01:29:13.344Z,3.213806
2019-01-14T01:30:22.884Z,3.183594
2019-01-14T01:31:32.404Z,3.163452
2019-01-14T01:32:41.991Z,3.193665
2019-01-14T01:33:51.552Z,3.193665
2019-01-14T01:35:01.075Z,3.183594
2019-01-14T01:36:10.597Z,3.163452
2019-01-14T01:37:20.195Z,3.163452
2019-01-14T01:38:29.735Z,3.143311
2019-01-14T01:39:39.306Z,3.13324
2019-01-14T01:40:48.860Z,3.13324
2019-01-14T01:41:58.461Z,3.13324
2019-01-14T01:43:07.988Z,3.13324
2019-01-14T01:44:17.527Z,3.103027
2019-01-14T01:45:27.064Z,3.072815
2019-01-14T01:46:36.592Z,3.072815
2019-01-14T01:47:46.155Z,3.072815
2019-01-14T01:48:55.756Z,3.072815
2019-01-14T01:50:05.287Z,3.042603
2019-01-14T01:51:14.869Z,3.032532
2019-01-14T01:52:24.413Z,3.042603
2019-01-14T01:53:33.972Z,3.002319
2019-01-14T01:54:43.525Z,3.01239
2019-01-14T01:55:53.066Z,2.972107
2019-01-14T01:57:03.582Z,2.972107
2019-01-14T01:58:13.143Z,2.951965
2019-01-14T01:59:22.729Z,2.951965
2019-01-14T02:00:32.300Z,2.931824
2019-01-14T02:01:41.871Z,2.901611
2019-01-14T02:02:51.459Z,2.891541
2019-01-14T02:04:01.025Z,2.871399
2019-01-14T02:05:10.585Z,2.871399
2019-01-14T02:06:20.116Z,2.851257
2019-01-14T02:07:29.715Z,2.861328
2019-01-14T02:08:39.367Z,2.871399
2019-01-14T02:09:48.909Z,2.901611
2019-01-14T02:10:58.477Z,2.931824
2019-01-14T02:12:08.031Z,2.951965
2019-01-14T02:13:17.596Z,2.972107
2019-01-14T02:14:27.125Z,2.931824
2019-01-14T02:15:36.659Z,2.951965
2019-01-14T02:16:46.173Z,2.931824
2019-01-14T02:17:55.725Z,2.901611
2019-01-14T02:19:05.299Z,2.871399
2019-01-14T02:20:14.847Z,2.861328
2019-01-14T02:21:24.386Z,2.851257
2019-01-14T02:22:33.956Z,2.831116
2019-01-14T02:23:43.502Z,2.821045
2019-01-14T02:24:53.044Z,2.800903
2019-01-14T02:26:02.576Z,2.800903
2019-01-14T02:27:12.118Z,2.750549
2019-01-14T02:28:21.726Z,2.750549
2019-01-14T02:29:31.254Z,2.720337
2019-01-14T02:30:40.811Z,2.750549
2019-01-14T02:31:50.336Z,2.750549
2019-01-14T02:32:59.896Z,2.750549
2019-01-14T02:34:09.457Z,2.770691
2019-01-14T02:35:19.000Z,2.790833
2019-01-14T02:36:28.557Z,2.790833
2019-01-14T02:37:38.097Z,2.750549
2019-01-14T02:38:47.631Z,2.770691
2019-01-14T02:39:57.170Z,2.770691
2019-01-14T02:41:06.711Z,2.770691
2019-01-14T02:42:16.252Z,2.800903
2019-01-14T02:43:25.827Z,2.800903
2019-01-14T02:44:35.364Z,2.800903
2019-01-14T02:45:45.895Z,2.821045
2019-01-14T02:46:55.447Z,2.851257
2019-01-14T02:48:04.968Z,2.851257
2019-01-14T02:49:14.544Z,2.861328
2019-01-14T02:50:24.090Z,2.891541
2019-01-14T02:51:33.648Z,2.861328
2019-01-14T02:52:43.174Z,2.831116
2019-01-14T02:53:52.731Z,2.800903
2019-01-14T02:55:02.306Z,2.770691
2019-01-14T02:56:11.857Z,2.770691
2019-01-14T02:57:21.399Z,2.770691
2019-01-14T02:58:30.965Z,2.790833
2019-01-14T02:59:40.520Z,2.770691
2019-01-14T03:00:50.064Z,2.800903
2019-01-14T03:01:59.606Z,2.831116
2019-01-14T03:03:09.224Z,2.790833
2019-01-14T03:04:18.821Z,2.770691
2019-01-14T03:05:28.390Z,2.770691
2019-01-14T03:06:38.006Z,2.770691
2019-01-14T03:07:47.589Z,2.821045
2019-01-14T03:08:57.168Z,2.831116
2019-01-14T03:10:06.729Z,2.861328
2019-01-14T03:11:16.337Z,2.831116
2019-01-14T03:12:25.929Z,2.800903
2019-01-14T03:13:35.542Z,2.770691
2019-01-14T03:14:45.156Z,2.740479
2019-01-14T03:15:54.723Z,2.720337
2019-01-14T03:17:04.312Z,2.710266
2019-01-14T03:18:13.914Z,2.720337
2019-01-14T03:19:23.506Z,2.720337
2019-01-14T03:20:33.040Z,2.770691
2019-01-14T03:21:42.654Z,2.740479
2019-01-14T03:22:52.353Z,2.750549
2019-01-14T03:24:01.923Z,2.770691
2019-01-14T03:25:11.459Z,2.831116
2019-01-14T03:26:21.022Z,2.851257
2019-01-14T03:27:30.521Z,2.831116
2019-01-14T03:28:40.080Z,2.871399
2019-01-14T03:29:49.717Z,2.901611
2019-01-14T03:30:59.404Z,2.891541
2019-01-14T03:32:08.965Z,2.901611
2019-01-14T03:33:18.564Z,2.921753
2019-01-14T03:34:28.201Z,2.931824
2019-01-14T03:35:37.795Z,2.901611
2019-01-14T03:36:47.378Z,2.901611
2019-01-14T03:37:56.966Z,2.901611
2019-01-14T03:39:06.517Z,2.921753
2019-01-14T03:40:16.065Z,2.921753
2019-01-14T03:41:25.662Z,2.921753
2019-01-14T03:42:35.223Z,2.891541
2019-01-14T03:43:44.816Z,2.901611
2019-01-14T03:44:54.357Z,2.861328
2019-01-14T03:46:03.932Z,2.851257
2019-01-14T03:47:13.514Z,2.821045
2019-01-14T03:48:23.142Z,2.821045
2019-01-14T03:49:32.727Z,2.821045
2019-01-14T03:50:42.358Z,2.800903
2019-01-14T03:51:51.930Z,2.770691
2019-01-14T03:53:01.527Z,2.790833
2019-01-14T03:54:11.130Z,2.790833
2019-01-14T03:55:20.711Z,2.790833
2019-01-14T03:56:30.335Z,2.750549
2019-01-14T03:57:39.957Z,2.740479
2019-01-14T03:58:49.536Z,2.720337
2019-01-14T03:59:59.232Z,2.821045
2019-01-14T04:01:08.907Z,2.831116
2019-01-14T04:02:18.573Z,2.800903
2019-01-14T04:03:28.176Z,2.800903
2019-01-14T04:04:37.819Z,2.790833
2019-01-14T04:05:47.466Z,2.770691
2019-01-14T04:06:57.041Z,2.750549
2019-01-14T04:08:07.625Z,2.750549
2019-01-14T04:09:17.178Z,2.740479
2019-01-14T04:10:26.788Z,2.720337
2019-01-14T04:11:36.379Z,2.720337
2019-01-14T04:12:45.943Z,2.720337
2019-01-14T04:13:55.519Z,2.710266
2019-01-14T04:15:05.104Z,2.690125
2019-01-14T04:16:14.681Z,2.710266
2019-01-14T04:17:24.227Z,2.680054
2019-01-14T04:18:33.813Z,2.680054
2019-01-14T04:19:43.456Z,2.680054
2019-01-14T04:20:53.028Z,2.669983
2019-01-14T04:22:02.651Z,2.669983
2019-01-14T04:23:12.204Z,2.669983
2019-01-14T04:24:21.805Z,2.639771
2019-01-14T04:25:31.427Z,2.619629
2019-01-14T04:26:40.982Z,2.619629
2019-01-14T04:27:50.568Z,2.639771
2019-01-14T04:29:00.117Z,2.619629
2019-01-14T04:30:09.712Z,2.599487
2019-01-14T04:31:19.300Z,2.559204
2019-01-14T04:32:28.880Z,2.569275
2019-01-14T04:33:37.431Z,2.559204
2019-01-14T04:34:47.016Z,2.569275
2019-01-14T04:35:56.615Z,2.609558
2019-01-14T04:37:06.181Z,2.599487
2019-01-14T04:38:16.750Z,2.569275
2019-01-14T04:39:26.331Z,2.649841
2019-01-14T04:40:35.913Z,2.669983
2019-01-14T04:41:45.483Z,2.690125
2019-01-14T04:42:55.041Z,2.690125
2019-01-14T04:44:04.635Z,2.669983
2019-01-14T04:45:14.196Z,2.619629
2019-01-14T04:46:23.762Z,2.669983
2019-01-14T04:47:33.335Z,2.669983
2019-01-14T04:48:42.919Z,2.690125
2019-01-14T04:49:52.485Z,2.680054
2019-01-14T04:51:02.104Z,2.680054
2019-01-14T04:52:11.688Z,2.649841
2019-01-14T04:53:21.204Z,2.669983
2019-01-14T04:54:30.791Z,2.680054
2019-01-14T04:55:40.353Z,2.649841
2019-01-14T04:56:49.921Z,2.669983
2019-01-14T04:57:59.506Z,2.680054
2019-01-14T04:59:09.066Z,2.639771
2019-01-14T05:00:18.663Z,2.609558
2019-01-14T05:01:28.214Z,2.720337
2019-01-14T05:02:37.743Z,2.770691
2019-01-14T05:03:47.267Z,2.800903
2019-01-14T05:04:56.783Z,2.800903
2019-01-14T05:06:06.344Z,2.790833
2019-01-14T05:07:15.938Z,2.800903
2019-01-14T05:08:26.474Z,2.800903
2019-01-14T05:09:36.059Z,2.831116
2019-01-14T05:10:45.616Z,2.800903
2019-01-14T05:11:55.190Z,2.790833
2019-01-14T05:13:04.738Z,2.750549
2019-01-14T05:14:14.294Z,2.790833
2019-01-14T05:15:23.960Z,2.790833
2019-01-14T05:16:33.520Z,2.821045
2019-01-14T05:17:43.094Z,2.861328
2019-01-14T05:18:52.648Z,2.921753
2019-01-14T05:20:02.214Z,2.931824
2019-01-14T05:21:11.769Z,2.931824
2019-01-14T05:22:21.307Z,2.931824
2019-01-14T05:23:30.897Z,2.921753
2019-01-14T05:24:40.475Z,2.891541
2019-01-14T05:25:50.074Z,2.871399
2019-01-14T05:26:59.672Z,2.871399
2019-01-14T05:28:09.338Z,2.901611
2019-01-14T05:29:18.898Z,2.871399
2019-01-14T05:30:28.468Z,2.871399
2019-01-14T05:31:38.013Z,2.861328
2019-01-14T05:32:47.585Z,2.861328
2019-01-14T05:33:57.216Z,2.851257
2019-01-14T05:35:06.761Z,2.821045
2019-01-14T05:36:16.323Z,2.790833
2019-01-14T05:37:25.947Z,2.770691
2019-01-14T05:38:36.570Z,2.770691
2019-01-14T05:39:46.124Z,2.790833
2019-01-14T05:40:55.725Z,2.790833
2019-01-14T05:42:05.368Z,2.800903
2019-01-14T05:43:14.910Z,2.790833
2019-01-14T05:44:24.524Z,2.770691
2019-01-14T05:45:34.248Z,2.740479
2019-01-14T05:46:43.849Z,2.750549
2019-01-14T05:47:53.404Z,2.720337
2019-01-14T05:49:02.966Z,2.720337
2019-01-14T05:50:12.516Z,2.710266
2019-01-14T05:51:22.148Z,2.690125
2019-01-14T05:52:31.784Z,2.690125
2019-01-14T05:53:41.533Z,2.669983
2019-01-14T05:54:51.209Z,2.649841
2019-01-14T05:56:00.893Z,2.609558
2019-01-14T05:57:10.622Z,2.569275
2019-01-14T05:58:20.266Z,2.559204
2019-01-14T05:59:29.982Z,2.50885
2019-01-14T06:00:39.640Z,2.488708
2019-01-14T06:01:49.341Z,2.468567
2019-01-14T06:02:59.038Z,2.488708
2019-01-14T06:04:08.757Z,2.468567
2019-01-14T06:05:18.355Z,2.458496
2019-01-14T06:06:27.960Z,2.428284
2019-01-14T06:07:44.661Z,2.458496
2019-01-14T06:08:47.089Z,2.488708
2019-01-14T06:09:56.621Z,2.468567
2019-01-14T06:11:06.248Z,2.498779
2019-01-14T06:12:15.778Z,2.50885
2019-01-14T06:13:25.337Z,2.468567
2019-01-14T06:14:34.889Z,2.458496
2019-01-14T06:15:44.481Z,2.438354
2019-01-14T06:16:54.050Z,2.438354
2019-01-14T06:18:03.603Z,2.458496
2019-01-14T06:19:13.283Z,2.498779
2019-01-14T06:20:22.861Z,2.498779
2019-01-14T06:21:32.472Z,2.488708
2019-01-14T06:22:43.067Z,2.488708
2019-01-14T06:23:52.638Z,2.488708
2019-01-14T06:25:01.175Z,2.468567
2019-01-14T06:26:10.763Z,2.488708
2019-01-14T06:27:20.269Z,2.488708
2019-01-14T06:28:29.841Z,2.488708
2019-01-14T06:29:39.403Z,2.50885
2019-01-14T06:30:50.006Z,2.528992
2019-01-14T06:31:59.597Z,2.50885
2019-01-14T06:33:09.171Z,2.50885
2019-01-14T06:34:18.716Z,2.50885
2019-01-14T06:35:28.293Z,2.528992
2019-01-14T06:36:37.898Z,2.50885
2019-01-14T06:37:52.203Z,2.50885
2019-01-14T06:38:57.022Z,2.488708
2019-01-14T06:40:06.616Z,2.488708
2019-01-14T06:41:16.247Z,2.498779
2019-01-14T06:42:25.827Z,2.50885
2019-01-14T06:43:36.385Z,2.569275
2019-01-14T06:44:45.948Z,2.569275
2019-01-14T06:45:55.546Z,2.559204
2019-01-14T06:47:05.145Z,2.599487
2019-01-14T06:48:14.692Z,2.609558
2019-01-14T06:49:24.284Z,2.609558
2019-01-14T06:50:33.875Z,2.619629
2019-01-14T06:51:43.491Z,2.619629
2019-01-14T06:52:53.092Z,2.649841
2019-01-14T06:54:02.668Z,2.669983
2019-01-14T06:55:12.239Z,2.649841
2019-01-14T06:56:21.790Z,2.649841
2019-01-14T06:57:31.333Z,2.669983
2019-01-14T06:58:40.909Z,2.690125
2019-01-14T06:59:50.454Z,2.690125
2019-01-14T07:01:00.029Z,2.710266
2019-01-14T07:02:09.563Z,2.680054
2019-01-14T07:03:19.106Z,2.690125
2019-01-14T07:04:28.677Z,2.680054
2019-01-14T07:05:38.193Z,2.710266
2019-01-14T07:06:47.755Z,2.740479
2019-01-14T07:07:59.631Z,2.720337
2019-01-14T07:09:06.843Z,2.740479
2019-01-14T07:10:16.389Z,2.720337
2019-01-14T07:11:25.945Z,2.710266
2019-01-14T07:12:35.511Z,2.690125
2019-01-14T07:13:45.062Z,2.690125
2019-01-14T07:14:54.689Z,2.690125
2019-01-14T07:16:04.241Z,2.690125
2019-01-14T07:17:13.782Z,2.669983
2019-01-14T07:18:24.321Z,2.669983
2019-01-14T07:19:33.862Z,2.669983
2019-01-14T07:20:43.469Z,2.680054
2019-01-14T07:21:54.034Z,2.669983
2019-01-14T07:23:03.613Z,2.680054
2019-01-14T07:24:13.134Z,2.680054
2019-01-14T07:25:22.692Z,2.649841
2019-01-14T07:26:32.254Z,2.639771
2019-01-14T07:27:40.800Z,2.619629
2019-01-14T07:28:50.371Z,2.619629
2019-01-14T07:29:59.889Z,2.619629
2019-01-14T07:31:09.499Z,2.639771
2019-01-14T07:32:19.034Z,2.639771
2019-01-14T07:33:28.581Z,2.649841
2019-01-14T07:34:38.110Z,2.639771
2019-01-14T07:35:47.665Z,2.649841
2019-01-14T07:36:57.229Z,2.669983
2019-01-14T07:38:07.225Z,2.669983
2019-01-14T07:39:16.332Z,2.669983
2019-01-14T07:40:25.894Z,2.680054
2019-01-14T07:41:35.450Z,2.649841
2019-01-14T07:42:44.965Z,2.639771
2019-01-14T07:43:54.504Z,2.609558
2019-01-14T07:45:04.044Z,2.569275
2019-01-14T07:46:13.604Z,2.569275
2019-01-14T07:47:23.345Z,2.559204
2019-01-14T07:48:32.886Z,2.528992
2019-01-14T07:49:42.427Z,2.539062
2019-01-14T07:50:51.956Z,2.539062
2019-01-14T07:52:01.505Z,2.539062
2019-01-14T07:53:11.032Z,2.539062
2019-01-14T07:54:20.567Z,2.559204
2019-01-14T07:55:30.163Z,2.539062
2019-01-14T07:56:39.709Z,2.559204
2019-01-14T07:57:49.279Z,2.559204
2019-01-14T07:58:58.826Z,2.599487
2019-01-14T08:00:08.341Z,2.569275
2019-01-14T08:01:17.879Z,2.569275
2019-01-14T08:02:27.470Z,2.569275
2019-01-14T08:03:37.033Z,2.559204
2019-01-14T08:04:46.593Z,2.569275
2019-01-14T08:05:56.159Z,2.559204
2019-01-14T08:07:05.720Z,2.569275
2019-01-14T08:08:15.313Z,2.599487
2019-01-14T08:09:24.953Z,2.569275
2019-01-14T08:10:34.640Z,2.599487
2019-01-14T08:11:44.365Z,2.609558
2019-01-14T08:12:54.066Z,2.609558
2019-01-14T08:14:03.761Z,2.609558
2019-01-14T08:15:13.428Z,2.609558
2019-01-14T08:16:23.153Z,2.559204
2019-01-14T08:17:32.995Z,2.559204
2019-01-14T08:18:42.760Z,2.569275
2019-01-14T08:19:52.550Z,2.559204
2019-01-14T08:21:02.253Z,2.559204
2019-01-14T08:22:11.937Z,2.559204
2019-01-14T08:23:21.568Z,2.528992
2019-01-14T08:24:31.269Z,2.50885
2019-01-14T08:25:40.889Z,2.528992
2019-01-14T08:26:50.572Z,2.528992
2019-01-14T08:28:00.267Z,2.50885
2019-01-14T08:29:10.023Z,2.50885
2019-01-14T08:30:19.709Z,2.50885
2019-01-14T08:31:29.383Z,2.539062
2019-01-14T08:32:39.012Z,2.559204
2019-01-14T08:33:48.672Z,2.559204
2019-01-14T08:34:58.350Z,2.539062
2019-01-14T08:36:08.035Z,2.559204
2019-01-14T08:37:17.754Z,2.569275
2019-01-14T08:38:27.396Z,2.569275
2019-01-14T08:39:37.059Z,2.569275
2019-01-14T08:40:46.666Z,2.599487
2019-01-14T08:41:56.347Z,2.619629
2019-01-14T08:43:05.975Z,2.649841
2019-01-14T08:44:15.600Z,2.669983
2019-01-14T08:45:25.243Z,2.669983
2019-01-14T08:46:34.838Z,2.639771
2019-01-14T08:47:44.495Z,2.649841
2019-01-14T08:48:54.125Z,2.639771
2019-01-14T08:50:03.751Z,2.669983
2019-01-14T08:51:13.308Z,2.690125
2019-01-14T08:52:22.852Z,2.750549
2019-01-14T08:53:32.452Z,2.770691
2019-01-14T08:54:43.273Z,2.790833
2019-01-14T08:55:52.888Z,2.851257
2019-01-14T08:57:02.480Z,2.851257
2019-01-14T08:58:12.020Z,2.831116
2019-01-14T08:59:21.546Z,2.831116
2019-01-14T09:00:31.098Z,2.821045
2019-01-14T09:01:40.643Z,2.821045
2019-01-14T09:02:50.213Z,2.851257
2019-01-14T09:03:59.768Z,2.861328
2019-01-14T09:05:09.290Z,2.851257
2019-01-14T09:06:19.642Z,2.831116
2019-01-14T09:07:29.174Z,2.790833
2019-01-14T09:08:38.721Z,2.821045
2019-01-14T09:09:48.293Z,2.851257
2019-01-14T09:10:57.826Z,2.861328
2019-01-14T09:12:07.526Z,2.901611
2019-01-14T09:13:17.068Z,2.921753
2019-01-14T09:14:26.618Z,2.951965
2019-01-14T09:15:36.284Z,2.931824
2019-01-14T09:16:46.088Z,2.901611
2019-01-14T09:18:02.739Z,2.861328
2019-01-14T09:19:07.397Z,2.891541
2019-01-14T09:20:16.895Z,2.861328
2019-01-14T09:21:26.549Z,2.871399
2019-01-14T09:22:36.123Z,2.861328
2019-01-14T09:23:45.723Z,2.861328
2019-01-14T09:24:55.272Z,2.790833
2019-01-14T09:26:04.900Z,2.770691
2019-01-14T09:27:14.475Z,2.800903
2019-01-14T09:28:24.331Z,2.831116
2019-01-14T09:29:33.759Z,2.861328
2019-01-14T09:30:43.377Z,2.831116
2019-01-14T09:31:52.958Z,2.851257
2019-01-14T09:33:02.547Z,2.851257
2019-01-14T09:34:12.201Z,2.851257
2019-01-14T09:35:21.860Z,2.821045
2019-01-14T09:36:31.396Z,2.750549
2019-01-14T09:37:40.971Z,2.690125
2019-01-14T09:38:50.505Z,2.680054
2019-01-14T09:40:00.255Z,2.649841
2019-01-14T09:41:09.649Z,2.649841
2019-01-14T09:42:20.196Z,2.669983
2019-01-14T09:43:30.565Z,2.690125
2019-01-14T09:44:40.083Z,2.710266
2019-01-14T09:45:49.727Z,2.790833
2019-01-14T09:46:59.288Z,2.790833
2019-01-14T09:48:08.858Z,2.831116
2019-01-14T09:49:18.402Z,2.861328
2019-01-14T09:50:27.914Z,2.861328
2019-01-14T09:51:37.457Z,2.851257
2019-01-14T09:52:47.028Z,2.821045
2019-01-14T09:53:57.536Z,2.750549
2019-01-14T09:55:07.082Z,2.669983
2019-01-14T09:56:16.627Z,2.680054
2019-01-14T09:57:26.164Z,2.720337
2019-01-14T09:58:35.702Z,2.750549
2019-01-14T09:59:45.249Z,2.831116
2019-01-14T10:00:54.800Z,2.861328
2019-01-14T10:02:05.331Z,2.861328
2019-01-14T10:03:14.875Z,2.800903
2019-01-14T10:04:24.420Z,2.770691
2019-01-14T10:05:33.931Z,2.770691
2019-01-14T10:06:43.467Z,2.750549
2019-01-14T10:07:53.012Z,2.800903
2019-01-14T10:09:03.891Z,2.790833
2019-01-14T10:10:12.052Z,2.750549
2019-01-14T10:11:21.606Z,2.740479
2019-01-14T10:12:31.139Z,2.720337
2019-01-14T10:13:40.695Z,2.740479
2019-01-14T10:14:50.255Z,2.740479
2019-01-14T10:15:59.805Z,2.720337
2019-01-14T10:17:09.327Z,2.710266
2019-01-14T10:18:18.883Z,2.710266
2019-01-14T10:19:28.410Z,2.710266
2019-01-14T10:20:37.939Z,2.720337
2019-01-14T10:21:47.491Z,2.720337
2019-01-14T10:22:57.043Z,2.720337
2019-01-14T10:24:06.575Z,2.720337
2019-01-14T10:25:16.217Z,2.740479
2019-01-14T10:26:25.746Z,2.710266
2019-01-14T10:27:35.259Z,2.740479
2019-01-14T10:28:44.810Z,2.720337
2019-01-14T10:29:54.343Z,2.710266
2019-01-14T10:31:03.885Z,2.720337
2019-01-14T10:32:13.417Z,2.680054
2019-01-14T10:33:22.955Z,2.680054
2019-01-14T10:34:32.534Z,2.669983
2019-01-14T10:35:42.097Z,2.710266
2019-01-14T10:36:51.637Z,2.690125
2019-01-14T10:38:01.185Z,2.690125
2019-01-14T10:39:10.733Z,2.680054
2019-01-14T10:40:19.324Z,2.669983
2019-01-14T10:41:28.873Z,2.639771
2019-01-14T10:42:38.433Z,2.609558
2019-01-14T10:43:47.980Z,2.599487
2019-01-14T10:44:58.494Z,2.559204
2019-01-14T10:46:08.027Z,2.539062
2019-01-14T10:47:17.569Z,2.539062
2019-01-14T10:48:27.135Z,2.559204
2019-01-14T10:49:36.668Z,2.539062
2019-01-14T10:50:46.224Z,2.539062
2019-01-14T10:51:55.774Z,2.559204
2019-01-14T10:53:05.383Z,2.539062
2019-01-14T10:54:14.914Z,2.528992
2019-01-14T10:55:24.509Z,2.528992
2019-01-14T10:56:34.125Z,2.488708
2019-01-14T10:57:44.798Z,2.458496
2019-01-14T10:58:54.451Z,2.428284
2019-01-14T11:00:03.994Z,2.388
2019-01-14T11:01:13.566Z,2.347717
2019-01-14T11:02:23.086Z,2.357788
2019-01-14T11:03:32.720Z,2.357788
2019-01-14T11:04:42.269Z,2.347717
2019-01-14T11:05:51.817Z,2.357788
2019-01-14T11:07:01.420Z,2.317505
2019-01-14T11:08:10.944Z,2.327576
2019-01-14T11:09:20.659Z,2.327576
2019-01-14T11:10:30.241Z,2.317505
2019-01-14T11:11:39.764Z,2.317505
2019-01-14T11:12:49.339Z,2.317505
2019-01-14T11:13:58.901Z,2.317505
2019-01-14T11:15:08.442Z,2.307434
2019-01-14T11:16:18.015Z,2.307434
2019-01-14T11:17:27.563Z,2.307434
2019-01-14T11:18:37.078Z,2.327576
2019-01-14T11:19:46.626Z,2.307434
2019-01-14T11:20:57.184Z,2.327576
2019-01-14T11:22:06.718Z,2.327576
2019-01-14T11:23:15.225Z,2.357788
2019-01-14T11:24:24.761Z,2.357788
2019-01-14T11:25:34.301Z,2.388
2019-01-14T11:26:43.841Z,2.428284
2019-01-14T11:27:53.362Z,2.458496
2019-01-14T11:29:02.902Z,2.468567
2019-01-14T11:30:12.430Z,2.438354
2019-01-14T11:31:21.958Z,2.458496
2019-01-14T11:32:31.484Z,2.438354
2019-01-14T11:33:41.026Z,2.458496
2019-01-14T11:34:50.554Z,2.468567
2019-01-14T11:36:01.096Z,2.438354
2019-01-14T11:37:10.644Z,2.468567
2019-01-14T11:38:20.196Z,2.438354
2019-01-14T11:39:29.740Z,2.468567
2019-01-14T11:40:39.285Z,2.488708
2019-01-14T11:41:48.818Z,2.498779
2019-01-14T11:42:58.335Z,2.528992
2019-01-14T11:44:07.884Z,2.559204
2019-01-14T11:45:17.410Z,2.619629
2019-01-14T11:46:26.942Z,2.609558
2019-01-14T11:47:36.491Z,2.649841
2019-01-14T11:48:46.151Z,2.669983
2019-01-14T11:49:55.678Z,2.669983
2019-01-14T11:51:05.230Z,2.649841
2019-01-14T11:52:14.764Z,2.649841
2019-01-14T11:53:24.311Z,2.649841
2019-01-14T11:54:33.871Z,2.639771
2019-01-14T11:55:43.394Z,2.669983
2019-01-14T11:56:52.940Z,2.649841
2019-01-14T11:58:02.495Z,2.669983
2019-01-14T11:59:12.034Z,2.649841
2019-01-14T12:00:21.583Z,2.669983
2019-01-14T12:01:32.120Z,2.669983
2019-01-14T12:02:41.681Z,2.669983
2019-01-14T12:03:51.282Z,2.649841
2019-01-14T12:05:00.837Z,2.669983
2019-01-14T12:06:10.433Z,2.639771
2019-01-14T12:07:20.082Z,2.680054
2019-01-14T12:08:29.268Z,2.680054
2019-01-14T12:09:38.777Z,2.710266
2019-01-14T12:10:48.337Z,2.710266
2019-01-14T12:11:57.946Z,2.710266
2019-01-14T12:13:07.479Z,2.720337
2019-01-14T12:14:17.044Z,2.710266
2019-01-14T12:15:26.694Z,2.669983
2019-01-14T12:16:36.210Z,2.710266
2019-01-14T12:17:45.787Z,2.720337
2019-01-14T12:18:54.328Z,2.720337
2019-01-14T12:20:03.867Z,2.720337
2019-01-14T12:21:13.436Z,2.750549
2019-01-14T12:22:22.991Z,2.750549
2019-01-14T12:23:32.554Z,2.790833
2019-01-14T12:24:42.126Z,2.831116
2019-01-14T12:25:51.720Z,2.821045
2019-01-14T12:27:02.287Z,2.831116
2019-01-14T12:28:11.808Z,2.800903
2019-01-14T12:29:21.386Z,2.790833
2019-01-14T12:30:30.941Z,2.790833
2019-01-14T12:31:40.531Z,2.720337
2019-01-14T12:32:49.102Z,2.690125
2019-01-14T12:33:58.668Z,2.669983
2019-01-14T12:35:08.179Z,2.639771
2019-01-14T12:36:17.722Z,2.619629
2019-01-14T12:37:27.322Z,2.599487
2019-01-14T12:38:36.894Z,2.559204
2019-01-14T12:39:46.436Z,2.539062
2019-01-14T12:40:56.014Z,2.498779
2019-01-14T12:42:05.541Z,2.498779
2019-01-14T12:43:15.414Z,2.468567
2019-01-14T12:44:24.994Z,2.438354
2019-01-14T12:45:34.547Z,2.428284
2019-01-14T12:46:44.087Z,2.438354
2019-01-14T12:47:53.622Z,2.458496
2019-01-14T12:49:03.270Z,2.438354
2019-01-14T12:50:12.814Z,2.438354
2019-01-14T12:51:22.344Z,2.468567
2019-01-14T12:52:31.910Z,2.468567
2019-01-14T12:53:41.518Z,2.438354
2019-01-14T12:54:51.090Z,2.428284
2019-01-14T12:56:00.642Z,2.388
2019-01-14T12:57:10.187Z,2.357788
2019-01-14T12:58:19.724Z,2.317505
2019-01-14T12:59:29.310Z,2.287292
2019-01-14T13:00:38.809Z,2.307434
2019-01-14T13:01:48.341Z,2.277222
2019-01-14T13:02:58.617Z,2.287292
2019-01-14T13:04:07.409Z,2.317505
2019-01-14T13:05:16.951Z,2.317505
2019-01-14T13:06:26.532Z,2.327576
2019-01-14T13:07:36.057Z,2.317505
2019-01-14T13:08:45.646Z,2.307434
2019-01-14T13:09:55.191Z,2.317505
2019-01-14T13:11:04.732Z,2.317505
2019-01-14T13:12:14.287Z,2.307434
2019-01-14T13:13:23.900Z,2.307434
2019-01-14T13:14:33.471Z,2.287292
2019-01-14T13:15:43.037Z,2.307434
2019-01-14T13:16:52.685Z,2.307434
2019-01-14T13:18:05.345Z,2.307434
2019-01-14T13:19:12.766Z,2.307434
2019-01-14T13:20:22.358Z,2.25708
2019-01-14T13:21:31.902Z,2.236938
2019-01-14T13:22:41.470Z,2.236938
2019-01-14T13:23:51.008Z,2.236938
2019-01-14T13:25:00.563Z,2.236938
2019-01-14T13:26:10.094Z,2.236938
2019-01-14T13:27:20.697Z,2.307434
2019-01-14T13:28:30.237Z,2.357788
2019-01-14T13:29:39.779Z,2.37793
2019-01-14T13:30:49.332Z,2.418213
2019-01-14T13:31:58.877Z,2.347717
2019-01-14T13:33:08.414Z,2.287292
2019-01-14T13:34:17.971Z,2.25708
2019-01-14T13:35:27.516Z,2.236938
2019-01-14T13:36:37.050Z,2.196655
2019-01-14T13:37:46.566Z,2.196655
2019-01-14T13:38:56.091Z,2.176514